sensor_id;sensor_type;location;lat;lon;timestamp;temperature;humidity
23377;DHT22;14353;46.070;13.222;2023-03-31T00:00:57;20.70;44.70
23377;DHT22;14353;46.070;13.222;2023-03-31T00:03:25;20.70;44.60
23377;DHT22;14353;46.070;13.222;2023-03-31T00:05:55;20.70;44.60
23377;DHT22;14353;46.070;13.222;2023-03-31T00:08:22;20.70;44.60
23377;DHT22;14353;46.070;13.222;2023-03-31T00:10:48;20.60;44.60
23377;DHT22;14353;46.070;13.222;2023-03-31T00:13:14;20.60;44.60
23377;DHT22;14353;46.070;13.222;2023-03-31T00:15:40;20.70;44.70
23377;DHT22;14353;46.070;13.222;2023-03-31T00:18:06;20.70;44.70
23377;DHT22;14353;46.070;13.222;2023-03-31T00:20:31;20.60;44.60
23377;DHT22;14353;46.070;13.222;2023-03-31T00:23:02;20.60;44.60
23377;DHT22;14353;46.070;13.222;2023-03-31T00:25:31;20.60;44.60
23377;DHT22;14353;46.070;13.222;2023-03-31T00:27:56;20.60;44.60
23377;DHT22;14353;46.070;13.222;2023-03-31T00:30:22;20.60;44.70
23377;DHT22;14353;46.070;13.222;2023-03-31T00:32:48;20.60;44.70
23377;DHT22;14353;46.070;13.222;2023-03-31T00:35:13;20.60;44.60
23377;DHT22;14353;46.070;13.222;2023-03-31T00:37:39;20.60;44.70
23377;DHT22;14353;46.070;13.222;2023-03-31T00:40:07;20.60;44.70
23377;DHT22;14353;46.070;13.222;2023-03-31T00:42:41;20.60;44.70
23377;DHT22;14353;46.070;13.222;2023-03-31T00:45:20;20.60;44.70
23377;DHT22;14353;46.070;13.222;2023-03-31T00:50:54;20.60;44.70
23377;DHT22;14353;46.070;13.222;2023-03-31T00:53:25;20.60;44.70
23377;DHT22;14353;46.070;13.222;2023-03-31T00:55:56;20.50;44.70
23377;DHT22;14353;46.070;13.222;2023-03-31T00:58:24;20.60;44.80
23377;DHT22;14353;46.070;13.222;2023-03-31T01:00:54;20.60;44.80
23377;DHT22;14353;46.070;13.222;2023-03-31T01:03:22;20.50;44.70
23377;DHT22;14353;46.070;13.222;2023-03-31T01:05:55;20.50;44.70
23377;DHT22;14353;46.070;13.222;2023-03-31T01:08:24;20.50;44.70
23377;DHT22;14353;46.070;13.222;2023-03-31T01:10:56;20.50;44.70
23377;DHT22;14353;46.070;13.222;2023-03-31T01:13:23;20.60;44.80
23377;DHT22;14353;46.070;13.222;2023-03-31T01:15:50;20.50;44.80
23377;DHT22;14353;46.070;13.222;2023-03-31T01:18:16;20.60;44.70
23377;DHT22;14353;46.070;13.222;2023-03-31T01:43:47;20.50;44.80
23377;DHT22;14353;46.070;13.222;2023-03-31T01:46:30;20.50;44.80
23377;DHT22;14353;46.070;13.222;2023-03-31T01:52:02;20.50;44.80
23377;DHT22;14353;46.070;13.222;2023-03-31T01:54:47;20.50;44.80
23377;DHT22;14353;46.070;13.222;2023-03-31T02:00:04;20.50;44.80
23377;DHT22;14353;46.070;13.222;2023-03-31T02:02:45;20.50;44.80
23377;DHT22;14353;46.070;13.222;2023-03-31T02:05:19;20.50;44.80
23377;DHT22;14353;46.070;13.222;2023-03-31T02:07:46;20.50;44.90
23377;DHT22;14353;46.070;13.222;2023-03-31T02:10:14;20.50;44.90
23377;DHT22;14353;46.070;13.222;2023-03-31T02:12:42;20.50;44.90
23377;DHT22;14353;46.070;13.222;2023-03-31T02:15:14;20.50;44.80
23377;DHT22;14353;46.070;13.222;2023-03-31T02:17:42;20.50;44.80
23377;DHT22;14353;46.070;13.222;2023-03-31T02:20:11;20.50;44.90
23377;DHT22;14353;46.070;13.222;2023-03-31T02:22:42;20.50;44.90
23377;DHT22;14353;46.070;13.222;2023-03-31T02:25:11;20.50;44.90
23377;DHT22;14353;46.070;13.222;2023-03-31T02:27:39;20.50;44.90
23377;DHT22;14353;46.070;13.222;2023-03-31T02:30:07;20.50;44.90
23377;DHT22;14353;46.070;13.222;2023-03-31T02:32:37;20.50;44.90
23377;DHT22;14353;46.070;13.222;2023-03-31T02:35:05;20.50;45.00
23377;DHT22;14353;46.070;13.222;2023-03-31T02:37:32;20.40;44.80
23377;DHT22;14353;46.070;13.222;2023-03-31T02:40:02;20.40;44.90
23377;DHT22;14353;46.070;13.222;2023-03-31T02:42:29;20.40;44.90
23377;DHT22;14353;46.070;13.222;2023-03-31T02:45:01;20.40;44.90
23377;DHT22;14353;46.070;13.222;2023-03-31T02:47:28;20.40;44.90
23377;DHT22;14353;46.070;13.222;2023-03-31T02:49:56;20.40;44.90
23377;DHT22;14353;46.070;13.222;2023-03-31T02:58:04;20.40;44.90
23377;DHT22;14353;46.070;13.222;2023-03-31T03:00:59;20.40;44.90
23377;DHT22;14353;46.070;13.222;2023-03-31T03:03:35;20.40;45.60
23377;DHT22;14353;46.070;13.222;2023-03-31T03:06:35;20.40;44.90
23377;DHT22;14353;46.070;13.222;2023-03-31T03:19:42;20.40;45.00
23377;DHT22;14353;46.070;13.222;2023-03-31T03:22:08;20.30;45.00
23377;DHT22;14353;46.070;13.222;2023-03-31T03:24:34;20.30;45.00
23377;DHT22;14353;46.070;13.222;2023-03-31T03:27:00;20.40;45.00
23377;DHT22;14353;46.070;13.222;2023-03-31T03:29:26;20.30;44.90
23377;DHT22;14353;46.070;13.222;2023-03-31T03:31:52;20.30;44.90
23377;DHT22;14353;46.070;13.222;2023-03-31T03:34:18;20.30;45.00
23377;DHT22;14353;46.070;13.222;2023-03-31T03:36:45;20.30;45.00
23377;DHT22;14353;46.070;13.222;2023-03-31T03:39:11;20.30;45.00
23377;DHT22;14353;46.070;13.222;2023-03-31T03:41:37;20.30;45.00
23377;DHT22;14353;46.070;13.222;2023-03-31T03:44:03;20.30;45.10
23377;DHT22;14353;46.070;13.222;2023-03-31T03:46:29;20.30;45.00
23377;DHT22;14353;46.070;13.222;2023-03-31T03:48:55;20.30;45.00
23377;DHT22;14353;46.070;13.222;2023-03-31T03:51:21;20.30;45.00
23377;DHT22;14353;46.070;13.222;2023-03-31T03:53:47;20.30;45.00
23377;DHT22;14353;46.070;13.222;2023-03-31T03:56:13;20.30;45.10
23377;DHT22;14353;46.070;13.222;2023-03-31T03:58:38;20.30;45.10
23377;DHT22;14353;46.070;13.222;2023-03-31T04:01:04;20.30;45.10
23377;DHT22;14353;46.070;13.222;2023-03-31T04:03:30;20.30;45.00
23377;DHT22;14353;46.070;13.222;2023-03-31T04:05:56;20.30;45.00
23377;DHT22;14353;46.070;13.222;2023-03-31T04:08:22;20.30;45.00
23377;DHT22;14353;46.070;13.222;2023-03-31T04:10:48;20.30;45.00
23377;DHT22;14353;46.070;13.222;2023-03-31T04:13:16;20.30;45.00
23377;DHT22;14353;46.070;13.222;2023-03-31T04:15:42;20.30;45.00
23377;DHT22;14353;46.070;13.222;2023-03-31T04:18:08;20.30;45.00
23377;DHT22;14353;46.070;13.222;2023-03-31T04:20:44;20.30;45.00
23377;DHT22;14353;46.070;13.222;2023-03-31T04:23:10;20.30;45.00
23377;DHT22;14353;46.070;13.222;2023-03-31T04:25:39;20.20;45.10
23377;DHT22;14353;46.070;13.222;2023-03-31T04:28:10;20.20;45.00
23377;DHT22;14353;46.070;13.222;2023-03-31T04:30:39;20.20;44.90
23377;DHT22;14353;46.070;13.222;2023-03-31T04:33:05;20.20;45.10
23377;DHT22;14353;46.070;13.222;2023-03-31T04:35:31;20.20;45.00
23377;DHT22;14353;46.070;13.222;2023-03-31T04:38:29;20.20;45.10
23377;DHT22;14353;46.070;13.222;2023-03-31T04:40:58;20.20;45.00
23377;DHT22;14353;46.070;13.222;2023-03-31T04:43:24;20.20;45.10
23377;DHT22;14353;46.070;13.222;2023-03-31T04:45:50;20.20;45.00
23377;DHT22;14353;46.070;13.222;2023-03-31T04:48:16;20.20;45.00
23377;DHT22;14353;46.070;13.222;2023-03-31T04:50:42;20.20;45.10
23377;DHT22;14353;46.070;13.222;2023-03-31T04:53:07;20.20;45.10
23377;DHT22;14353;46.070;13.222;2023-03-31T04:55:34;20.20;45.10
23377;DHT22;14353;46.070;13.222;2023-03-31T04:58:00;20.20;45.10
23377;DHT22;14353;46.070;13.222;2023-03-31T05:00:25;20.20;45.10
23377;DHT22;14353;46.070;13.222;2023-03-31T05:02:51;20.20;45.10
23377;DHT22;14353;46.070;13.222;2023-03-31T05:05:17;20.20;45.10
23377;DHT22;14353;46.070;13.222;2023-03-31T05:07:43;20.20;45.10
23377;DHT22;14353;46.070;13.222;2023-03-31T05:10:09;20.20;45.10
23377;DHT22;14353;46.070;13.222;2023-03-31T05:12:35;20.20;45.10
23377;DHT22;14353;46.070;13.222;2023-03-31T05:15:02;20.20;45.20
23377;DHT22;14353;46.070;13.222;2023-03-31T05:17:31;20.20;45.10
23377;DHT22;14353;46.070;13.222;2023-03-31T05:19:57;20.20;45.10
23377;DHT22;14353;46.070;13.222;2023-03-31T05:22:23;20.20;45.10
23377;DHT22;14353;46.070;13.222;2023-03-31T05:24:49;20.20;45.10
23377;DHT22;14353;46.070;13.222;2023-03-31T05:27:15;20.20;45.10
23377;DHT22;14353;46.070;13.222;2023-03-31T05:29:41;20.20;45.10
23377;DHT22;14353;46.070;13.222;2023-03-31T05:32:06;20.20;45.30
23377;DHT22;14353;46.070;13.222;2023-03-31T05:34:32;20.20;45.30
23377;DHT22;14353;46.070;13.222;2023-03-31T05:36:58;20.20;45.50
23377;DHT22;14353;46.070;13.222;2023-03-31T05:39:23;20.20;45.60
23377;DHT22;14353;46.070;13.222;2023-03-31T05:41:49;20.20;45.70
23377;DHT22;14353;46.070;13.222;2023-03-31T05:44:15;20.20;45.80
23377;DHT22;14353;46.070;13.222;2023-03-31T05:46:41;20.20;46.00
23377;DHT22;14353;46.070;13.222;2023-03-31T05:49:07;20.20;46.00
23377;DHT22;14353;46.070;13.222;2023-03-31T05:51:33;20.20;46.10
23377;DHT22;14353;46.070;13.222;2023-03-31T05:53:59;20.20;46.10
23377;DHT22;14353;46.070;13.222;2023-03-31T05:56:25;20.20;46.20
23377;DHT22;14353;46.070;13.222;2023-03-31T05:58:52;20.20;46.20
23377;DHT22;14353;46.070;13.222;2023-03-31T06:01:18;20.20;46.20
23377;DHT22;14353;46.070;13.222;2023-03-31T06:03:45;20.20;46.30
23377;DHT22;14353;46.070;13.222;2023-03-31T06:06:11;20.30;46.40
23377;DHT22;14353;46.070;13.222;2023-03-31T06:08:41;20.20;47.20
23377;DHT22;14353;46.070;13.222;2023-03-31T06:11:10;20.30;47.50
23377;DHT22;14353;46.070;13.222;2023-03-31T06:13:37;20.30;47.20
23377;DHT22;14353;46.070;13.222;2023-03-31T06:16:04;20.30;47.00
23377;DHT22;14353;46.070;13.222;2023-03-31T06:18:33;20.30;47.40
23377;DHT22;14353;46.070;13.222;2023-03-31T06:20:59;20.30;47.70
23377;DHT22;14353;46.070;13.222;2023-03-31T06:23:25;20.30;48.10
23377;DHT22;14353;46.070;13.222;2023-03-31T06:25:52;20.30;48.20
23377;DHT22;14353;46.070;13.222;2023-03-31T06:28:19;20.30;48.20
23377;DHT22;14353;46.070;13.222;2023-03-31T06:30:46;20.30;48.10
23377;DHT22;14353;46.070;13.222;2023-03-31T06:33:13;20.30;48.50
23377;DHT22;14353;46.070;13.222;2023-03-31T06:35:40;20.30;48.40
23377;DHT22;14353;46.070;13.222;2023-03-31T06:38:06;20.30;48.60
23377;DHT22;14353;46.070;13.222;2023-03-31T06:40:32;20.30;48.30
23377;DHT22;14353;46.070;13.222;2023-03-31T06:42:58;20.30;48.20
23377;DHT22;14353;46.070;13.222;2023-03-31T06:45:24;20.40;48.30
23377;DHT22;14353;46.070;13.222;2023-03-31T06:47:50;20.40;48.00
23377;DHT22;14353;46.070;13.222;2023-03-31T06:50:16;20.40;48.20
23377;DHT22;14353;46.070;13.222;2023-03-31T06:52:42;20.40;48.00
23377;DHT22;14353;46.070;13.222;2023-03-31T06:55:08;20.40;48.20
23377;DHT22;14353;46.070;13.222;2023-03-31T06:57:34;20.40;48.20
23377;DHT22;14353;46.070;13.222;2023-03-31T07:00:02;20.40;48.10
23377;DHT22;14353;46.070;13.222;2023-03-31T07:02:28;20.50;48.30
23377;DHT22;14353;46.070;13.222;2023-03-31T07:04:53;20.50;48.30
23377;DHT22;14353;46.070;13.222;2023-03-31T07:07:19;20.50;48.70
23377;DHT22;14353;46.070;13.222;2023-03-31T07:09:45;20.50;49.50
23377;DHT22;14353;46.070;13.222;2023-03-31T07:12:10;20.50;48.30
23377;DHT22;14353;46.070;13.222;2023-03-31T07:14:36;20.50;48.00
23377;DHT22;14353;46.070;13.222;2023-03-31T07:17:02;20.60;48.20
23377;DHT22;14353;46.070;13.222;2023-03-31T07:19:28;20.60;47.70
23377;DHT22;14353;46.070;13.222;2023-03-31T07:21:53;20.60;47.50
23377;DHT22;14353;46.070;13.222;2023-03-31T07:24:21;20.60;47.50
23377;DHT22;14353;46.070;13.222;2023-03-31T07:26:47;20.70;47.60
23377;DHT22;14353;46.070;13.222;2023-03-31T07:29:13;20.70;47.40
23377;DHT22;14353;46.070;13.222;2023-03-31T07:31:39;20.70;47.20
23377;DHT22;14353;46.070;13.222;2023-03-31T07:34:04;20.70;47.20
23377;DHT22;14353;46.070;13.222;2023-03-31T07:36:30;20.80;47.40
23377;DHT22;14353;46.070;13.222;2023-03-31T07:38:56;20.80;48.00
23377;DHT22;14353;46.070;13.222;2023-03-31T07:41:22;20.80;47.80
23377;DHT22;14353;46.070;13.222;2023-03-31T07:43:49;20.80;48.10
23377;DHT22;14353;46.070;13.222;2023-03-31T07:46:20;20.80;47.80
23377;DHT22;14353;46.070;13.222;2023-03-31T07:48:46;20.90;48.50
23377;DHT22;14353;46.070;13.222;2023-03-31T07:51:18;20.90;47.90
23377;DHT22;14353;46.070;13.222;2023-03-31T07:53:44;20.90;47.80
23377;DHT22;14353;46.070;13.222;2023-03-31T07:56:11;20.90;48.40
23377;DHT22;14353;46.070;13.222;2023-03-31T07:58:37;21.00;47.80
23377;DHT22;14353;46.070;13.222;2023-03-31T08:01:03;21.00;47.80
23377;DHT22;14353;46.070;13.222;2023-03-31T08:03:29;21.00;48.10
23377;DHT22;14353;46.070;13.222;2023-03-31T08:05:56;21.10;47.90
23377;DHT22;14353;46.070;13.222;2023-03-31T08:08:22;21.10;48.10
23377;DHT22;14353;46.070;13.222;2023-03-31T08:10:49;21.10;48.60
23377;DHT22;14353;46.070;13.222;2023-03-31T08:13:16;21.10;48.80
23377;DHT22;14353;46.070;13.222;2023-03-31T08:15:44;21.10;48.40
23377;DHT22;14353;46.070;13.222;2023-03-31T08:18:13;21.10;49.00
23377;DHT22;14353;46.070;13.222;2023-03-31T08:20:40;21.20;48.80
23377;DHT22;14353;46.070;13.222;2023-03-31T08:23:06;21.20;48.30
23377;DHT22;14353;46.070;13.222;2023-03-31T08:25:36;21.20;48.80
23377;DHT22;14353;46.070;13.222;2023-03-31T08:28:02;21.20;48.40
23377;DHT22;14353;46.070;13.222;2023-03-31T08:30:28;21.20;48.70
23377;DHT22;14353;46.070;13.222;2023-03-31T08:32:54;21.20;48.90
23377;DHT22;14353;46.070;13.222;2023-03-31T08:35:23;21.20;49.00
23377;DHT22;14353;46.070;13.222;2023-03-31T08:37:48;21.20;49.00
23377;DHT22;14353;46.070;13.222;2023-03-31T08:40:18;21.20;49.00
23377;DHT22;14353;46.070;13.222;2023-03-31T08:42:50;21.30;49.20
23377;DHT22;14353;46.070;13.222;2023-03-31T08:47:47;21.30;48.80
23377;DHT22;14353;46.070;13.222;2023-03-31T08:50:19;21.30;49.10
23377;DHT22;14353;46.070;13.222;2023-03-31T08:55:35;21.30;49.30
23377;DHT22;14353;46.070;13.222;2023-03-31T08:58:17;21.30;49.20
23377;DHT22;14353;46.070;13.222;2023-03-31T09:00:52;21.30;49.30
23377;DHT22;14353;46.070;13.222;2023-03-31T09:06:36;21.30;48.70
23377;DHT22;14353;46.070;13.222;2023-03-31T09:09:00;21.30;48.70
23377;DHT22;14353;46.070;13.222;2023-03-31T09:12:01;21.40;48.60
23377;DHT22;14353;46.070;13.222;2023-03-31T09:14:30;21.40;48.60
23377;DHT22;14353;46.070;13.222;2023-03-31T09:19:48;21.40;48.40
23377;DHT22;14353;46.070;13.222;2023-03-31T09:22:19;21.40;48.20
23377;DHT22;14353;46.070;13.222;2023-03-31T09:25:11;21.50;48.60
23377;DHT22;14353;46.070;13.222;2023-03-31T09:27:42;21.50;48.20
23377;DHT22;14353;46.070;13.222;2023-03-31T09:32:36;21.50;48.30
23377;DHT22;14353;46.070;13.222;2023-03-31T09:35:21;21.50;48.70
23377;DHT22;14353;46.070;13.222;2023-03-31T09:37:48;21.60;48.40
23377;DHT22;14353;46.070;13.222;2023-03-31T09:40:20;21.60;48.10
23377;DHT22;14353;46.070;13.222;2023-03-31T09:42:56;21.60;48.00
23377;DHT22;14353;46.070;13.222;2023-03-31T09:45:22;21.60;48.40
23377;DHT22;14353;46.070;13.222;2023-03-31T09:47:54;21.60;48.20
23377;DHT22;14353;46.070;13.222;2023-03-31T09:50:22;21.60;48.20
23377;DHT22;14353;46.070;13.222;2023-03-31T09:52:51;21.50;48.20
23377;DHT22;14353;46.070;13.222;2023-03-31T09:55:21;21.50;50.70
23377;DHT22;14353;46.070;13.222;2023-03-31T09:57:48;21.50;49.20
23377;DHT22;14353;46.070;13.222;2023-03-31T10:00:20;21.50;49.80
23377;DHT22;14353;46.070;13.222;2023-03-31T10:02:50;21.50;50.60
23377;DHT22;14353;46.070;13.222;2023-03-31T10:05:35;21.50;49.70
23377;DHT22;14353;46.070;13.222;2023-03-31T10:08:19;21.50;50.80
23377;DHT22;14353;46.070;13.222;2023-03-31T10:10:52;21.50;49.90
23377;DHT22;14353;46.070;13.222;2023-03-31T10:13:22;21.50;51.10
23377;DHT22;14353;46.070;13.222;2023-03-31T10:15:53;21.50;51.10
23377;DHT22;14353;46.070;13.222;2023-03-31T10:18:20;21.50;50.70
23377;DHT22;14353;46.070;13.222;2023-03-31T10:20:57;21.50;51.70
23377;DHT22;14353;46.070;13.222;2023-03-31T10:23:28;21.50;52.60
23377;DHT22;14353;46.070;13.222;2023-03-31T10:25:55;21.50;52.00
23377;DHT22;14353;46.070;13.222;2023-03-31T10:28:22;21.50;53.10
23377;DHT22;14353;46.070;13.222;2023-03-31T10:30:55;21.50;52.50
23377;DHT22;14353;46.070;13.222;2023-03-31T10:33:24;21.50;51.30
23377;DHT22;14353;46.070;13.222;2023-03-31T10:35:58;21.50;51.50
23377;DHT22;14353;46.070;13.222;2023-03-31T10:38:41;21.50;52.00
23377;DHT22;14353;46.070;13.222;2023-03-31T10:41:10;21.50;51.80
23377;DHT22;14353;46.070;13.222;2023-03-31T10:43:40;21.50;52.20
23377;DHT22;14353;46.070;13.222;2023-03-31T10:46:06;21.40;52.20
23377;DHT22;14353;46.070;13.222;2023-03-31T10:48:34;21.50;52.10
23377;DHT22;14353;46.070;13.222;2023-03-31T11:12:43;21.40;52.40
23377;DHT22;14353;46.070;13.222;2023-03-31T11:23:41;21.30;53.20
23377;DHT22;14353;46.070;13.222;2023-03-31T11:34:09;21.20;53.70
23377;DHT22;14353;46.070;13.222;2023-03-31T11:45:30;21.10;53.50
23377;DHT22;14353;46.070;13.222;2023-03-31T11:48:06;21.10;53.70
23377;DHT22;14353;46.070;13.222;2023-03-31T11:50:37;21.10;53.30
23377;DHT22;14353;46.070;13.222;2023-03-31T11:55:33;21.10;53.10
23377;DHT22;14353;46.070;13.222;2023-03-31T12:00:41;21.10;53.10
23377;DHT22;14353;46.070;13.222;2023-03-31T12:03:40;21.10;53.10
23377;DHT22;14353;46.070;13.222;2023-03-31T12:06:19;21.10;53.20
23377;DHT22;14353;46.070;13.222;2023-03-31T12:17:27;21.10;53.20
23377;DHT22;14353;46.070;13.222;2023-03-31T12:19:56;21.10;53.10
23377;DHT22;14353;46.070;13.222;2023-03-31T12:22:36;21.10;53.10
23377;DHT22;14353;46.070;13.222;2023-03-31T12:25:03;21.10;53.10
23377;DHT22;14353;46.070;13.222;2023-03-31T12:27:39;21.10;53.00
23377;DHT22;14353;46.070;13.222;2023-03-31T12:32:40;21.20;52.90
23377;DHT22;14353;46.070;13.222;2023-03-31T12:35:27;21.10;52.90
23377;DHT22;14353;46.070;13.222;2023-03-31T12:38:17;21.10;52.90
23377;DHT22;14353;46.070;13.222;2023-03-31T12:40:54;21.10;53.00
23377;DHT22;14353;46.070;13.222;2023-03-31T12:52:38;21.10;53.10
23377;DHT22;14353;46.070;13.222;2023-03-31T13:01:21;21.10;52.80
23377;DHT22;14353;46.070;13.222;2023-03-31T13:09:05;21.10;53.00
23377;DHT22;14353;46.070;13.222;2023-03-31T13:11:39;21.10;52.90
23377;DHT22;14353;46.070;13.222;2023-03-31T13:14:27;21.10;53.00
23377;DHT22;14353;46.070;13.222;2023-03-31T13:19:46;21.10;53.00
23377;DHT22;14353;46.070;13.222;2023-03-31T13:28:14;21.10;53.00
23377;DHT22;14353;46.070;13.222;2023-03-31T13:33:15;21.00;53.10
23377;DHT22;14353;46.070;13.222;2023-03-31T13:35:47;21.00;53.10
23377;DHT22;14353;46.070;13.222;2023-03-31T13:43:40;21.00;53.90
23377;DHT22;14353;46.070;13.222;2023-03-31T13:54:38;20.90;53.30
23377;DHT22;14353;46.070;13.222;2023-03-31T14:05:36;20.80;53.40
23377;DHT22;14353;46.070;13.222;2023-03-31T14:08:29;20.80;53.40
23377;DHT22;14353;46.070;13.222;2023-03-31T14:11:15;20.80;53.40
23377;DHT22;14353;46.070;13.222;2023-03-31T14:13:41;20.80;53.40
23377;DHT22;14353;46.070;13.222;2023-03-31T14:16:07;20.80;53.40
23377;DHT22;14353;46.070;13.222;2023-03-31T14:18:37;20.80;53.40
23377;DHT22;14353;46.070;13.222;2023-03-31T14:21:26;20.70;53.30
23377;DHT22;14353;46.070;13.222;2023-03-31T14:24:14;20.70;53.30
23377;DHT22;14353;46.070;13.222;2023-03-31T14:29:34;20.70;53.30
23377;DHT22;14353;46.070;13.222;2023-03-31T14:35:11;20.70;53.20
23377;DHT22;14353;46.070;13.222;2023-03-31T14:37:39;20.70;53.20
23377;DHT22;14353;46.070;13.222;2023-03-31T14:40:09;20.70;53.30
23377;DHT22;14353;46.070;13.222;2023-03-31T14:42:38;20.70;53.30
23377;DHT22;14353;46.070;13.222;2023-03-31T14:45:29;20.60;53.20
23377;DHT22;14353;46.070;13.222;2023-03-31T14:48:13;20.60;53.20
23377;DHT22;14353;46.070;13.222;2023-03-31T14:50:44;20.60;53.20
23377;DHT22;14353;46.070;13.222;2023-03-31T14:53:15;20.60;53.20
23377;DHT22;14353;46.070;13.222;2023-03-31T14:55:41;20.60;53.10
23377;DHT22;14353;46.070;13.222;2023-03-31T14:58:11;20.60;53.10
23377;DHT22;14353;46.070;13.222;2023-03-31T15:00:39;20.60;53.20
23377;DHT22;14353;46.070;13.222;2023-03-31T15:03:10;20.60;53.10
23377;DHT22;14353;46.070;13.222;2023-03-31T15:05:39;20.60;53.10
23377;DHT22;14353;46.070;13.222;2023-03-31T15:08:18;20.60;53.00
23377;DHT22;14353;46.070;13.222;2023-03-31T15:10:49;20.60;53.10
23377;DHT22;14353;46.070;13.222;2023-03-31T15:13:46;20.50;53.00
23377;DHT22;14353;46.070;13.222;2023-03-31T15:19:15;20.50;53.00
23377;DHT22;14353;46.070;13.222;2023-03-31T15:21:41;20.50;53.00
23377;DHT22;14353;46.070;13.222;2023-03-31T15:24:11;20.50;52.90
23377;DHT22;14353;46.070;13.222;2023-03-31T15:26:42;20.50;52.90
23377;DHT22;14353;46.070;13.222;2023-03-31T15:29:20;20.50;52.80
23377;DHT22;14353;46.070;13.222;2023-03-31T15:31:47;20.60;52.90
23377;DHT22;14353;46.070;13.222;2023-03-31T15:34:25;20.50;52.80
23377;DHT22;14353;46.070;13.222;2023-03-31T15:36:56;20.50;52.70
23377;DHT22;14353;46.070;13.222;2023-03-31T15:39:26;20.50;52.70
23377;DHT22;14353;46.070;13.222;2023-03-31T15:41:53;20.50;52.70
23377;DHT22;14353;46.070;13.222;2023-03-31T15:44:45;20.50;52.70
23377;DHT22;14353;46.070;13.222;2023-03-31T15:47:36;20.50;52.60
23377;DHT22;14353;46.070;13.222;2023-03-31T15:52:36;20.50;52.50
23377;DHT22;14353;46.070;13.222;2023-03-31T15:55:32;20.50;52.50
23377;DHT22;14353;46.070;13.222;2023-03-31T15:58:04;20.50;52.40
23377;DHT22;14353;46.070;13.222;2023-03-31T16:03:04;20.50;52.30
23377;DHT22;14353;46.070;13.222;2023-03-31T16:05:53;20.50;52.30
23377;DHT22;14353;46.070;13.222;2023-03-31T16:08:29;20.50;52.20
23377;DHT22;14353;46.070;13.222;2023-03-31T16:11:08;20.50;52.10
23377;DHT22;14353;46.070;13.222;2023-03-31T16:13:40;20.50;52.10
23377;DHT22;14353;46.070;13.222;2023-03-31T16:16:09;20.50;52.00
23377;DHT22;14353;46.070;13.222;2023-03-31T16:18:42;20.50;52.00
23377;DHT22;14353;46.070;13.222;2023-03-31T16:21:09;20.50;52.00
23377;DHT22;14353;46.070;13.222;2023-03-31T16:23:39;20.50;52.00
23377;DHT22;14353;46.070;13.222;2023-03-31T16:26:06;20.50;51.90
23377;DHT22;14353;46.070;13.222;2023-03-31T16:28:34;20.50;51.90
23377;DHT22;14353;46.070;13.222;2023-03-31T16:31:02;20.50;51.80
23377;DHT22;14353;46.070;13.222;2023-03-31T16:33:30;20.50;51.80
23377;DHT22;14353;46.070;13.222;2023-03-31T16:36:15;20.50;51.80
23377;DHT22;14353;46.070;13.222;2023-03-31T16:38:42;20.40;51.70
23377;DHT22;14353;46.070;13.222;2023-03-31T16:41:08;20.40;51.60
23377;DHT22;14353;46.070;13.222;2023-03-31T16:43:34;20.40;51.60
23377;DHT22;14353;46.070;13.222;2023-03-31T16:46:01;20.40;51.60
23377;DHT22;14353;46.070;13.222;2023-03-31T16:48:29;20.40;51.60
23377;DHT22;14353;46.070;13.222;2023-03-31T16:50:58;20.40;51.50
23377;DHT22;14353;46.070;13.222;2023-03-31T16:53:27;20.40;51.50
23377;DHT22;14353;46.070;13.222;2023-03-31T16:55:54;20.40;51.50
23377;DHT22;14353;46.070;13.222;2023-03-31T16:58:20;20.40;51.50
23377;DHT22;14353;46.070;13.222;2023-03-31T17:00:46;20.40;51.40
23377;DHT22;14353;46.070;13.222;2023-03-31T17:03:12;20.40;51.40
23377;DHT22;14353;46.070;13.222;2023-03-31T17:05:46;20.40;51.40
23377;DHT22;14353;46.070;13.222;2023-03-31T17:08:13;20.40;51.30
23377;DHT22;14353;46.070;13.222;2023-03-31T17:10:40;20.40;51.30
23377;DHT22;14353;46.070;13.222;2023-03-31T17:13:06;20.40;51.30
23377;DHT22;14353;46.070;13.222;2023-03-31T17:15:32;20.40;51.20
23377;DHT22;14353;46.070;13.222;2023-03-31T17:18:01;20.40;51.20
23377;DHT22;14353;46.070;13.222;2023-03-31T17:20:28;20.40;51.20
23377;DHT22;14353;46.070;13.222;2023-03-31T17:22:54;20.40;51.20
23377;DHT22;14353;46.070;13.222;2023-03-31T17:25:20;20.30;51.10
23377;DHT22;14353;46.070;13.222;2023-03-31T17:27:46;20.40;51.20
23377;DHT22;14353;46.070;13.222;2023-03-31T17:30:13;20.30;51.10
23377;DHT22;14353;46.070;13.222;2023-03-31T17:32:39;20.40;51.70
23377;DHT22;14353;46.070;13.222;2023-03-31T17:35:06;20.30;51.00
23377;DHT22;14353;46.070;13.222;2023-03-31T17:37:32;20.40;51.10
23377;DHT22;14353;46.070;13.222;2023-03-31T17:39:58;20.30;51.00
23377;DHT22;14353;46.070;13.222;2023-03-31T17:42:24;20.30;50.90
23377;DHT22;14353;46.070;13.222;2023-03-31T17:44:50;20.30;50.90
23377;DHT22;14353;46.070;13.222;2023-03-31T17:47:18;20.30;50.90
23377;DHT22;14353;46.070;13.222;2023-03-31T17:49:45;20.30;50.90
23377;DHT22;14353;46.070;13.222;2023-03-31T17:52:11;20.30;50.90
23377;DHT22;14353;46.070;13.222;2023-03-31T17:54:38;20.30;50.90
23377;DHT22;14353;46.070;13.222;2023-03-31T17:57:04;20.30;50.80
23377;DHT22;14353;46.070;13.222;2023-03-31T17:59:29;20.30;50.80
23377;DHT22;14353;46.070;13.222;2023-03-31T18:01:55;20.30;50.80
23377;DHT22;14353;46.070;13.222;2023-03-31T18:04:21;20.30;50.80
23377;DHT22;14353;46.070;13.222;2023-03-31T18:06:46;20.30;50.80
23377;DHT22;14353;46.070;13.222;2023-03-31T18:09:13;20.30;50.80
23377;DHT22;14353;46.070;13.222;2023-03-31T18:11:39;20.30;50.80
23377;DHT22;14353;46.070;13.222;2023-03-31T18:14:06;20.30;50.80
23377;DHT22;14353;46.070;13.222;2023-03-31T18:16:32;20.30;50.80
23377;DHT22;14353;46.070;13.222;2023-03-31T18:18:59;20.30;50.70
23377;DHT22;14353;46.070;13.222;2023-03-31T18:21:25;20.30;50.70
23377;DHT22;14353;46.070;13.222;2023-03-31T18:23:51;20.30;50.70
23377;DHT22;14353;46.070;13.222;2023-03-31T18:26:18;20.20;50.60
23377;DHT22;14353;46.070;13.222;2023-03-31T18:28:44;20.30;50.60
23377;DHT22;14353;46.070;13.222;2023-03-31T18:31:11;20.30;50.60
23377;DHT22;14353;46.070;13.222;2023-03-31T18:33:37;20.20;51.20
23377;DHT22;14353;46.070;13.222;2023-03-31T18:36:04;20.20;50.50
23377;DHT22;14353;46.070;13.222;2023-03-31T18:38:30;20.20;50.50
23377;DHT22;14353;46.070;13.222;2023-03-31T18:40:57;20.20;50.50
23377;DHT22;14353;46.070;13.222;2023-03-31T18:43:23;20.20;50.50